Terminal Aerodrome Forecast
Issued by NWS

Home | Current Version | Previous Version | Graphics & Text | Print | Product List | Glossary On
Versions: 1 2 3 4 5 6 7 8 9 10 11 12 13 14 15 16
000
FTUS41 KCLE 301700
TAFFDY
TAF
KFDY 301731Z 3018/3118 21012G22KT P6SM VCSH SCT060 BKN120
     FM302100 21012G20KT P6SM VCTS BKN060CB
      TEMPO 3021/3024 6SM -TSRA OVC035CB
     FM310200 20012KT 5SM -SHRA VCTS SCT030CB OVC120
     FM310900 22008KT 4SM -SHRA OVC025
     FM311100 23008KT 4SM BR OVC015=

USA.gov is the U.S. government's official web portal to all federal, state and local government web resources and services.